sensor_id;sensor_type;location;lat;lon;timestamp;P1;durP1;ratioP1;P2;durP2;ratioP2
39518;SDS011;25200;53.394;10.414;2022-08-21T00:00:14;5.75;;;1.90;;
39518;SDS011;25200;53.394;10.414;2022-08-21T00:02:52;5.80;;;2.00;;
39518;SDS011;25200;53.394;10.414;2022-08-21T00:05:20;4.88;;;1.80;;
39518;SDS011;25200;53.394;10.414;2022-08-21T00:07:47;7.10;;;1.90;;
39518;SDS011;25200;53.394;10.414;2022-08-21T00:10:13;7.50;;;1.92;;
39518;SDS011;25200;53.394;10.414;2022-08-21T00:12:39;5.88;;;1.90;;
39518;SDS011;25200;53.394;10.414;2022-08-21T00:15:05;6.00;;;1.90;;
39518;SDS011;25200;53.394;10.414;2022-08-21T00:17:33;5.10;;;2.00;;
39518;SDS011;25200;53.394;10.414;2022-08-21T00:19:59;6.53;;;1.90;;
39518;SDS011;25200;53.394;10.414;2022-08-21T00:22:25;4.38;;;1.98;;
39518;SDS011;25200;53.394;10.414;2022-08-21T00:24:51;3.88;;;1.90;;
39518;SDS011;25200;53.394;10.414;2022-08-21T00:27:16;4.95;;;2.10;;
39518;SDS011;25200;53.394;10.414;2022-08-21T00:29:42;5.72;;;2.13;;
39518;SDS011;25200;53.394;10.414;2022-08-21T00:32:08;4.90;;;1.83;;
39518;SDS011;25200;53.394;10.414;2022-08-21T00:34:34;5.97;;;1.90;;
39518;SDS011;25200;53.394;10.414;2022-08-21T00:36:59;7.55;;;2.10;;
39518;SDS011;25200;53.394;10.414;2022-08-21T00:39:25;5.47;;;2.28;;
39518;SDS011;25200;53.394;10.414;2022-08-21T00:41:51;6.28;;;1.90;;
39518;SDS011;25200;53.394;10.414;2022-08-21T00:44:16;5.70;;;1.98;;
39518;SDS011;25200;53.394;10.414;2022-08-21T00:46:42;7.72;;;2.03;;
39518;SDS011;25200;53.394;10.414;2022-08-21T00:49:09;6.90;;;2.10;;
39518;SDS011;25200;53.394;10.414;2022-08-21T00:51:42;5.82;;;2.05;;
39518;SDS011;25200;53.394;10.414;2022-08-21T00:54:13;4.72;;;1.83;;
39518;SDS011;25200;53.394;10.414;2022-08-21T00:56:40;3.80;;;1.80;;
39518;SDS011;25200;53.394;10.414;2022-08-21T00:59:06;5.85;;;2.17;;
39518;SDS011;25200;53.394;10.414;2022-08-21T01:01:32;6.20;;;2.10;;
39518;SDS011;25200;53.394;10.414;2022-08-21T01:03:58;5.88;;;1.92;;
39518;SDS011;25200;53.394;10.414;2022-08-21T01:06:24;4.80;;;2.30;;
39518;SDS011;25200;53.394;10.414;2022-08-21T01:08:50;5.65;;;2.20;;
39518;SDS011;25200;53.394;10.414;2022-08-21T01:11:16;4.90;;;2.15;;
39518;SDS011;25200;53.394;10.414;2022-08-21T01:13:42;6.32;;;2.08;;
39518;SDS011;25200;53.394;10.414;2022-08-21T01:16:11;6.63;;;2.35;;
39518;SDS011;25200;53.394;10.414;2022-08-21T01:18:40;5.47;;;2.20;;
39518;SDS011;25200;53.394;10.414;2022-08-21T01:21:11;5.70;;;1.98;;
39518;SDS011;25200;53.394;10.414;2022-08-21T01:23:43;5.03;;;2.10;;
39518;SDS011;25200;53.394;10.414;2022-08-21T01:26:11;4.20;;;1.98;;
39518;SDS011;25200;53.394;10.414;2022-08-21T01:28:40;4.07;;;1.95;;
39518;SDS011;25200;53.394;10.414;2022-08-21T01:31:10;4.57;;;1.73;;
39518;SDS011;25200;53.394;10.414;2022-08-21T01:33:38;6.30;;;2.15;;
39518;SDS011;25200;53.394;10.414;2022-08-21T01:36:04;7.65;;;2.03;;
39518;SDS011;25200;53.394;10.414;2022-08-21T01:38:31;5.95;;;2.58;;
39518;SDS011;25200;53.394;10.414;2022-08-21T01:40:57;5.68;;;2.38;;
39518;SDS011;25200;53.394;10.414;2022-08-21T01:43:23;7.00;;;2.50;;
39518;SDS011;25200;53.394;10.414;2022-08-21T01:45:49;7.13;;;2.30;;
39518;SDS011;25200;53.394;10.414;2022-08-21T01:48:15;4.75;;;2.25;;
39518;SDS011;25200;53.394;10.414;2022-08-21T01:50:41;6.38;;;2.47;;
39518;SDS011;25200;53.394;10.414;2022-08-21T01:53:06;8.23;;;2.22;;
39518;SDS011;25200;53.394;10.414;2022-08-21T01:55:32;4.70;;;2.25;;
39518;SDS011;25200;53.394;10.414;2022-08-21T01:57:58;5.60;;;2.00;;
39518;SDS011;25200;53.394;10.414;2022-08-21T02:00:24;8.30;;;2.70;;
39518;SDS011;25200;53.394;10.414;2022-08-21T02:02:50;5.63;;;2.15;;
39518;SDS011;25200;53.394;10.414;2022-08-21T02:05:17;5.25;;;2.00;;
39518;SDS011;25200;53.394;10.414;2022-08-21T02:07:48;5.72;;;2.00;;
39518;SDS011;25200;53.394;10.414;2022-08-21T02:10:20;5.15;;;2.20;;
39518;SDS011;25200;53.394;10.414;2022-08-21T02:12:51;6.53;;;2.33;;
39518;SDS011;25200;53.394;10.414;2022-08-21T02:15:17;5.10;;;2.30;;
39518;SDS011;25200;53.394;10.414;2022-08-21T02:17:47;5.53;;;2.35;;
39518;SDS011;25200;53.394;10.414;2022-08-21T02:20:17;4.63;;;2.17;;
39518;SDS011;25200;53.394;10.414;2022-08-21T02:22:45;5.95;;;2.30;;
39518;SDS011;25200;53.394;10.414;2022-08-21T02:25:11;7.22;;;2.15;;
39518;SDS011;25200;53.394;10.414;2022-08-21T02:27:37;5.47;;;2.45;;
39518;SDS011;25200;53.394;10.414;2022-08-21T02:30:05;5.15;;;2.05;;
39518;SDS011;25200;53.394;10.414;2022-08-21T02:32:32;7.00;;;2.25;;
39518;SDS011;25200;53.394;10.414;2022-08-21T02:34:58;6.13;;;2.20;;
39518;SDS011;25200;53.394;10.414;2022-08-21T02:37:24;5.50;;;1.98;;
39518;SDS011;25200;53.394;10.414;2022-08-21T02:39:49;5.32;;;2.25;;
39518;SDS011;25200;53.394;10.414;2022-08-21T02:42:15;6.05;;;2.20;;
39518;SDS011;25200;53.394;10.414;2022-08-21T02:44:41;5.45;;;2.30;;
39518;SDS011;25200;53.394;10.414;2022-08-21T02:47:07;4.95;;;2.33;;
39518;SDS011;25200;53.394;10.414;2022-08-21T02:49:32;7.32;;;2.40;;
39518;SDS011;25200;53.394;10.414;2022-08-21T02:51:58;5.72;;;2.40;;
39518;SDS011;25200;53.394;10.414;2022-08-21T02:54:24;6.43;;;2.30;;
39518;SDS011;25200;53.394;10.414;2022-08-21T02:56:50;4.80;;;2.58;;
39518;SDS011;25200;53.394;10.414;2022-08-21T02:59:15;6.20;;;2.20;;
39518;SDS011;25200;53.394;10.414;2022-08-21T03:01:41;4.80;;;2.40;;
39518;SDS011;25200;53.394;10.414;2022-08-21T03:04:07;5.25;;;2.13;;
39518;SDS011;25200;53.394;10.414;2022-08-21T03:06:33;5.03;;;2.47;;
39518;SDS011;25200;53.394;10.414;2022-08-21T03:08:58;6.03;;;2.58;;
39518;SDS011;25200;53.394;10.414;2022-08-21T03:11:24;6.95;;;2.47;;
39518;SDS011;25200;53.394;10.414;2022-08-21T03:13:51;5.05;;;2.38;;
39518;SDS011;25200;53.394;10.414;2022-08-21T03:16:17;6.07;;;2.50;;
39518;SDS011;25200;53.394;10.414;2022-08-21T03:18:44;6.20;;;2.40;;
39518;SDS011;25200;53.394;10.414;2022-08-21T03:21:10;6.30;;;2.50;;
39518;SDS011;25200;53.394;10.414;2022-08-21T03:23:36;6.15;;;2.33;;
39518;SDS011;25200;53.394;10.414;2022-08-21T03:26:04;4.78;;;2.33;;
39518;SDS011;25200;53.394;10.414;2022-08-21T03:28:31;5.30;;;2.50;;
39518;SDS011;25200;53.394;10.414;2022-08-21T03:30:57;4.95;;;2.10;;
39518;SDS011;25200;53.394;10.414;2022-08-21T03:33:23;7.25;;;2.47;;
39518;SDS011;25200;53.394;10.414;2022-08-21T03:35:53;5.80;;;2.47;;
39518;SDS011;25200;53.394;10.414;2022-08-21T03:38:26;6.00;;;2.45;;
39518;SDS011;25200;53.394;10.414;2022-08-21T03:40:52;6.82;;;2.63;;
39518;SDS011;25200;53.394;10.414;2022-08-21T03:43:18;5.18;;;2.63;;
39518;SDS011;25200;53.394;10.414;2022-08-21T03:45:47;6.07;;;2.42;;
39518;SDS011;25200;53.394;10.414;2022-08-21T03:48:13;5.45;;;2.20;;
39518;SDS011;25200;53.394;10.414;2022-08-21T03:50:40;5.50;;;2.25;;
39518;SDS011;25200;53.394;10.414;2022-08-21T03:53:09;5.30;;;2.35;;
39518;SDS011;25200;53.394;10.414;2022-08-21T03:55:35;7.32;;;2.28;;
39518;SDS011;25200;53.394;10.414;2022-08-21T03:58:01;4.80;;;2.22;;
39518;SDS011;25200;53.394;10.414;2022-08-21T04:00:27;7.03;;;2.10;;
39518;SDS011;25200;53.394;10.414;2022-08-21T04:02:53;5.38;;;2.40;;
39518;SDS011;25200;53.394;10.414;2022-08-21T04:05:19;6.38;;;2.58;;
39518;SDS011;25200;53.394;10.414;2022-08-21T04:07:58;5.65;;;2.40;;
39518;SDS011;25200;53.394;10.414;2022-08-21T04:10:27;4.75;;;2.00;;
39518;SDS011;25200;53.394;10.414;2022-08-21T04:12:55;5.15;;;2.13;;
39518;SDS011;25200;53.394;10.414;2022-08-21T04:15:21;5.55;;;2.05;;
39518;SDS011;25200;53.394;10.414;2022-08-21T04:17:48;6.57;;;2.65;;
39518;SDS011;25200;53.394;10.414;2022-08-21T04:20:14;5.45;;;2.20;;
39518;SDS011;25200;53.394;10.414;2022-08-21T04:22:40;5.75;;;2.25;;
39518;SDS011;25200;53.394;10.414;2022-08-21T04:25:06;7.35;;;2.80;;
39518;SDS011;25200;53.394;10.414;2022-08-21T04:27:33;5.18;;;2.30;;
39518;SDS011;25200;53.394;10.414;2022-08-21T04:29:59;4.40;;;2.15;;
39518;SDS011;25200;53.394;10.414;2022-08-21T04:32:26;6.10;;;2.17;;
39518;SDS011;25200;53.394;10.414;2022-08-21T04:35:04;5.38;;;2.28;;
39518;SDS011;25200;53.394;10.414;2022-08-21T04:37:31;4.70;;;2.28;;
39518;SDS011;25200;53.394;10.414;2022-08-21T04:39:57;4.93;;;2.20;;
39518;SDS011;25200;53.394;10.414;2022-08-21T04:42:26;5.88;;;2.17;;
39518;SDS011;25200;53.394;10.414;2022-08-21T04:44:53;5.72;;;2.15;;
39518;SDS011;25200;53.394;10.414;2022-08-21T04:47:21;5.68;;;2.30;;
39518;SDS011;25200;53.394;10.414;2022-08-21T04:49:47;6.10;;;2.70;;
39518;SDS011;25200;53.394;10.414;2022-08-21T04:52:13;6.85;;;2.67;;
39518;SDS011;25200;53.394;10.414;2022-08-21T04:54:42;5.68;;;2.60;;
39518;SDS011;25200;53.394;10.414;2022-08-21T04:57:10;9.48;;;2.80;;
39518;SDS011;25200;53.394;10.414;2022-08-21T04:59:38;6.47;;;2.67;;
39518;SDS011;25200;53.394;10.414;2022-08-21T05:02:07;5.65;;;2.38;;
39518;SDS011;25200;53.394;10.414;2022-08-21T05:04:34;6.75;;;2.55;;
39518;SDS011;25200;53.394;10.414;2022-08-21T05:07:04;7.28;;;2.45;;
39518;SDS011;25200;53.394;10.414;2022-08-21T05:09:32;5.32;;;2.63;;
39518;SDS011;25200;53.394;10.414;2022-08-21T05:11:58;9.55;;;2.80;;
39518;SDS011;25200;53.394;10.414;2022-08-21T05:14:25;7.88;;;3.03;;
39518;SDS011;25200;53.394;10.414;2022-08-21T05:16:52;5.50;;;2.40;;
39518;SDS011;25200;53.394;10.414;2022-08-21T05:19:18;5.00;;;2.30;;
39518;SDS011;25200;53.394;10.414;2022-08-21T05:21:44;5.28;;;2.40;;
39518;SDS011;25200;53.394;10.414;2022-08-21T05:24:12;5.10;;;2.22;;
39518;SDS011;25200;53.394;10.414;2022-08-21T05:26:38;5.05;;;2.35;;
39518;SDS011;25200;53.394;10.414;2022-08-21T05:29:04;5.22;;;2.38;;
39518;SDS011;25200;53.394;10.414;2022-08-21T05:31:30;5.40;;;2.50;;
39518;SDS011;25200;53.394;10.414;2022-08-21T05:33:56;6.55;;;2.42;;
39518;SDS011;25200;53.394;10.414;2022-08-21T05:36:22;5.07;;;2.20;;
39518;SDS011;25200;53.394;10.414;2022-08-21T05:38:48;5.53;;;2.05;;
39518;SDS011;25200;53.394;10.414;2022-08-21T05:41:14;6.07;;;2.40;;
39518;SDS011;25200;53.394;10.414;2022-08-21T05:43:40;6.95;;;2.60;;
39518;SDS011;25200;53.394;10.414;2022-08-21T05:46:06;6.47;;;2.45;;
39518;SDS011;25200;53.394;10.414;2022-08-21T05:48:33;6.28;;;2.70;;
39518;SDS011;25200;53.394;10.414;2022-08-21T05:51:03;5.13;;;2.40;;
39518;SDS011;25200;53.394;10.414;2022-08-21T05:53:34;5.50;;;2.55;;
39518;SDS011;25200;53.394;10.414;2022-08-21T05:56:01;4.93;;;2.30;;
39518;SDS011;25200;53.394;10.414;2022-08-21T05:58:29;5.30;;;2.30;;
39518;SDS011;25200;53.394;10.414;2022-08-21T06:00:55;4.68;;;2.20;;
39518;SDS011;25200;53.394;10.414;2022-08-21T06:03:24;7.18;;;2.88;;
39518;SDS011;25200;53.394;10.414;2022-08-21T06:05:52;4.90;;;2.30;;
39518;SDS011;25200;53.394;10.414;2022-08-21T06:08:19;5.88;;;2.47;;
39518;SDS011;25200;53.394;10.414;2022-08-21T06:10:46;9.18;;;2.40;;
39518;SDS011;25200;53.394;10.414;2022-08-21T06:13:13;6.35;;;2.50;;
39518;SDS011;25200;53.394;10.414;2022-08-21T06:15:40;8.20;;;2.88;;
39518;SDS011;25200;53.394;10.414;2022-08-21T06:18:06;9.90;;;2.83;;
39518;SDS011;25200;53.394;10.414;2022-08-21T06:20:32;6.38;;;2.20;;
39518;SDS011;25200;53.394;10.414;2022-08-21T06:22:59;4.38;;;2.20;;
39518;SDS011;25200;53.394;10.414;2022-08-21T06:25:25;6.80;;;3.10;;
39518;SDS011;25200;53.394;10.414;2022-08-21T06:27:50;6.20;;;2.30;;
39518;SDS011;25200;53.394;10.414;2022-08-21T06:30:17;7.68;;;2.90;;
39518;SDS011;25200;53.394;10.414;2022-08-21T06:32:43;8.02;;;2.40;;
39518;SDS011;25200;53.394;10.414;2022-08-21T06:35:09;7.32;;;2.50;;
39518;SDS011;25200;53.394;10.414;2022-08-21T06:37:36;4.80;;;2.30;;
39518;SDS011;25200;53.394;10.414;2022-08-21T06:40:03;5.15;;;2.10;;
39518;SDS011;25200;53.394;10.414;2022-08-21T06:42:30;6.03;;;2.33;;
39518;SDS011;25200;53.394;10.414;2022-08-21T06:44:56;7.10;;;2.40;;
39518;SDS011;25200;53.394;10.414;2022-08-21T06:47:23;6.20;;;2.17;;
39518;SDS011;25200;53.394;10.414;2022-08-21T06:49:48;9.38;;;2.90;;
39518;SDS011;25200;53.394;10.414;2022-08-21T06:52:14;6.93;;;2.30;;
39518;SDS011;25200;53.394;10.414;2022-08-21T06:54:40;5.35;;;2.42;;
39518;SDS011;25200;53.394;10.414;2022-08-21T06:57:06;6.03;;;2.03;;
39518;SDS011;25200;53.394;10.414;2022-08-21T06:59:32;7.70;;;2.40;;
39518;SDS011;25200;53.394;10.414;2022-08-21T07:01:58;8.05;;;2.25;;
39518;SDS011;25200;53.394;10.414;2022-08-21T07:04:24;6.22;;;2.33;;
39518;SDS011;25200;53.394;10.414;2022-08-21T07:06:50;5.90;;;2.20;;
39518;SDS011;25200;53.394;10.414;2022-08-21T07:09:16;4.78;;;2.30;;
39518;SDS011;25200;53.394;10.414;2022-08-21T07:11:42;5.40;;;2.30;;
39518;SDS011;25200;53.394;10.414;2022-08-21T07:14:11;3.95;;;1.95;;
39518;SDS011;25200;53.394;10.414;2022-08-21T07:16:37;6.57;;;2.30;;
39518;SDS011;25200;53.394;10.414;2022-08-21T07:19:03;7.53;;;2.40;;
39518;SDS011;25200;53.394;10.414;2022-08-21T07:21:28;6.68;;;2.28;;
39518;SDS011;25200;53.394;10.414;2022-08-21T07:23:54;5.13;;;2.00;;
39518;SDS011;25200;53.394;10.414;2022-08-21T07:26:21;6.00;;;2.35;;
39518;SDS011;25200;53.394;10.414;2022-08-21T07:28:48;4.72;;;2.00;;
39518;SDS011;25200;53.394;10.414;2022-08-21T07:31:15;6.10;;;2.30;;
39518;SDS011;25200;53.394;10.414;2022-08-21T07:33:43;7.07;;;1.85;;
39518;SDS011;25200;53.394;10.414;2022-08-21T07:36:09;4.93;;;2.10;;
39518;SDS011;25200;53.394;10.414;2022-08-21T07:38:35;6.38;;;2.13;;
39518;SDS011;25200;53.394;10.414;2022-08-21T07:41:02;5.70;;;2.28;;
39518;SDS011;25200;53.394;10.414;2022-08-21T07:43:31;4.95;;;1.90;;
39518;SDS011;25200;53.394;10.414;2022-08-21T07:45:57;5.85;;;2.13;;
39518;SDS011;25200;53.394;10.414;2022-08-21T07:48:23;5.80;;;2.05;;
39518;SDS011;25200;53.394;10.414;2022-08-21T07:50:49;5.05;;;1.80;;
39518;SDS011;25200;53.394;10.414;2022-08-21T07:53:16;5.82;;;2.00;;
39518;SDS011;25200;53.394;10.414;2022-08-21T07:55:41;5.82;;;1.55;;
39518;SDS011;25200;53.394;10.414;2022-08-21T07:58:07;5.70;;;1.92;;
39518;SDS011;25200;53.394;10.414;2022-08-21T08:00:33;5.88;;;2.15;;
39518;SDS011;25200;53.394;10.414;2022-08-21T08:02:59;4.80;;;1.60;;
39518;SDS011;25200;53.394;10.414;2022-08-21T08:05:27;6.95;;;1.75;;
39518;SDS011;25200;53.394;10.414;2022-08-21T08:07:54;6.25;;;2.00;;
39518;SDS011;25200;53.394;10.414;2022-08-21T08:10:20;6.30;;;1.88;;
39518;SDS011;25200;53.394;10.414;2022-08-21T08:12:47;5.50;;;1.75;;
39518;SDS011;25200;53.394;10.414;2022-08-21T08:15:15;5.88;;;1.80;;
39518;SDS011;25200;53.394;10.414;2022-08-21T08:17:42;4.47;;;1.60;;
39518;SDS011;25200;53.394;10.414;2022-08-21T08:20:09;6.85;;;2.00;;
39518;SDS011;25200;53.394;10.414;2022-08-21T08:22:36;5.25;;;1.70;;
39518;SDS011;25200;53.394;10.414;2022-08-21T08:25:04;6.38;;;2.15;;
39518;SDS011;25200;53.394;10.414;2022-08-21T08:27:31;4.10;;;1.63;;
39518;SDS011;25200;53.394;10.414;2022-08-21T08:29:57;7.07;;;1.70;;
39518;SDS011;25200;53.394;10.414;2022-08-21T08:32:23;5.32;;;1.67;;
39518;SDS011;25200;53.394;10.414;2022-08-21T08:34:49;6.38;;;1.88;;
39518;SDS011;25200;53.394;10.414;2022-08-21T08:37:16;6.68;;;1.80;;
39518;SDS011;25200;53.394;10.414;2022-08-21T08:39:44;6.88;;;1.67;;
39518;SDS011;25200;53.394;10.414;2022-08-21T08:42:14;4.30;;;1.60;;
39518;SDS011;25200;53.394;10.414;2022-08-21T08:44:44;8.17;;;1.87;;
39518;SDS011;25200;53.394;10.414;2022-08-21T08:47:11;4.30;;;1.73;;
39518;SDS011;25200;53.394;10.414;2022-08-21T08:49:40;3.92;;;1.80;;
39518;SDS011;25200;53.394;10.414;2022-08-21T08:52:28;4.18;;;1.63;;
39518;SDS011;25200;53.394;10.414;2022-08-21T08:55:10;6.07;;;1.75;;
39518;SDS011;25200;53.394;10.414;2022-08-21T08:57:39;4.45;;;1.90;;
39518;SDS011;25200;53.394;10.414;2022-08-21T09:00:11;5.07;;;2.00;;
39518;SDS011;25200;53.394;10.414;2022-08-21T09:02:39;6.15;;;2.20;;
39518;SDS011;25200;53.394;10.414;2022-08-21T09:05:07;6.78;;;2.30;;
39518;SDS011;25200;53.394;10.414;2022-08-21T09:07:51;9.07;;;2.25;;
39518;SDS011;25200;53.394;10.414;2022-08-21T09:10:29;6.70;;;2.47;;
39518;SDS011;25200;53.394;10.414;2022-08-21T09:27:15;9.75;;;2.22;;
39518;SDS011;25200;53.394;10.414;2022-08-21T09:29:45;6.55;;;1.88;;
39518;SDS011;25200;53.394;10.414;2022-08-21T09:32:23;5.78;;;1.67;;
39518;SDS011;25200;53.394;10.414;2022-08-21T09:34:55;5.82;;;1.90;;
39518;SDS011;25200;53.394;10.414;2022-08-21T09:37:21;5.57;;;1.80;;
39518;SDS011;25200;53.394;10.414;2022-08-21T09:39:47;6.75;;;2.10;;
39518;SDS011;25200;53.394;10.414;2022-08-21T09:42:20;4.72;;;1.70;;
39518;SDS011;25200;53.394;10.414;2022-08-21T09:44:48;5.30;;;1.70;;
39518;SDS011;25200;53.394;10.414;2022-08-21T09:47:14;5.55;;;1.58;;
39518;SDS011;25200;53.394;10.414;2022-08-21T09:49:43;5.20;;;1.77;;
39518;SDS011;25200;53.394;10.414;2022-08-21T09:52:16;6.38;;;1.70;;
39518;SDS011;25200;53.394;10.414;2022-08-21T09:54:46;5.90;;;2.00;;
39518;SDS011;25200;53.394;10.414;2022-08-21T09:57:22;5.22;;;2.10;;
39518;SDS011;25200;53.394;10.414;2022-08-21T10:00:24;5.05;;;1.70;;
39518;SDS011;25200;53.394;10.414;2022-08-21T10:02:54;7.17;;;1.80;;
39518;SDS011;25200;53.394;10.414;2022-08-21T10:05:36;6.82;;;1.80;;
39518;SDS011;25200;53.394;10.414;2022-08-21T10:08:03;7.40;;;2.03;;
39518;SDS011;25200;53.394;10.414;2022-08-21T10:10:31;5.32;;;1.60;;
39518;SDS011;25200;53.394;10.414;2022-08-21T10:13:16;6.80;;;1.67;;
39518;SDS011;25200;53.394;10.414;2022-08-21T10:18:42;6.78;;;2.08;;
39518;SDS011;25200;53.394;10.414;2022-08-21T10:21:19;8.25;;;2.03;;
39518;SDS011;25200;53.394;10.414;2022-08-21T10:24:18;5.90;;;1.98;;
39518;SDS011;25200;53.394;10.414;2022-08-21T10:35:06;8.18;;;2.10;;
39518;SDS011;25200;53.394;10.414;2022-08-21T10:40:55;6.35;;;2.05;;
39518;SDS011;25200;53.394;10.414;2022-08-21T10:43:42;6.70;;;2.10;;
39518;SDS011;25200;53.394;10.414;2022-08-21T10:49:17;5.95;;;1.90;;
39518;SDS011;25200;53.394;10.414;2022-08-21T10:54:53;5.53;;;1.80;;
39518;SDS011;25200;53.394;10.414;2022-08-21T11:00:19;5.13;;;1.92;;
39518;SDS011;25200;53.394;10.414;2022-08-21T11:05:20;9.50;;;2.10;;
39518;SDS011;25200;53.394;10.414;2022-08-21T11:11:22;7.00;;;1.90;;
39518;SDS011;25200;53.394;10.414;2022-08-21T11:13:48;4.55;;;1.83;;
39518;SDS011;25200;53.394;10.414;2022-08-21T11:21:32;8.73;;;2.28;;
39518;SDS011;25200;53.394;10.414;2022-08-21T11:26:57;5.55;;;2.10;;
39518;SDS011;25200;53.394;10.414;2022-08-21T11:29:32;5.78;;;1.83;;
39518;SDS011;25200;53.394;10.414;2022-08-21T11:35:20;5.47;;;1.83;;
39518;SDS011;25200;53.394;10.414;2022-08-21T11:40:37;5.03;;;1.75;;
39518;SDS011;25200;53.394;10.414;2022-08-21T11:43:33;5.60;;;1.98;;
39518;SDS011;25200;53.394;10.414;2022-08-21T11:46:20;4.75;;;1.98;;
39518;SDS011;25200;53.394;10.414;2022-08-21T11:57:46;5.18;;;1.70;;
39518;SDS011;25200;53.394;10.414;2022-08-21T12:00:34;7.35;;;1.77;;
39518;SDS011;25200;53.394;10.414;2022-08-21T12:03:08;6.90;;;1.90;;
39518;SDS011;25200;53.394;10.414;2022-08-21T12:05:41;4.85;;;1.40;;
39518;SDS011;25200;53.394;10.414;2022-08-21T12:11:23;4.28;;;1.60;;
39518;SDS011;25200;53.394;10.414;2022-08-21T12:16:40;6.05;;;1.60;;
39518;SDS011;25200;53.394;10.414;2022-08-21T12:19:12;3.70;;;1.50;;
39518;SDS011;25200;53.394;10.414;2022-08-21T12:29:46;3.17;;;1.40;;
39518;SDS011;25200;53.394;10.414;2022-08-21T12:34:41;4.28;;;1.80;;
39518;SDS011;25200;53.394;10.414;2022-08-21T12:40:12;4.72;;;1.73;;
39518;SDS011;25200;53.394;10.414;2022-08-21T12:42:46;3.80;;;1.52;;
39518;SDS011;25200;53.394;10.414;2022-08-21T12:48:05;4.80;;;1.70;;
39518;SDS011;25200;53.394;10.414;2022-08-21T12:50:35;5.85;;;1.67;;
39518;SDS011;25200;53.394;10.414;2022-08-21T12:53:47;3.88;;;1.52;;
39518;SDS011;25200;53.394;10.414;2022-08-21T12:56:13;3.13;;;1.50;;
39518;SDS011;25200;53.394;10.414;2022-08-21T12:58:46;3.97;;;1.70;;
39518;SDS011;25200;53.394;10.414;2022-08-21T13:03:50;6.65;;;1.92;;
39518;SDS011;25200;53.394;10.414;2022-08-21T13:06:22;3.42;;;1.52;;
39518;SDS011;25200;53.394;10.414;2022-08-21T13:08:53;3.45;;;1.45;;
39518;SDS011;25200;53.394;10.414;2022-08-21T13:11:23;3.53;;;1.60;;
39518;SDS011;25200;53.394;10.414;2022-08-21T13:13:50;4.00;;;1.50;;
39518;SDS011;25200;53.394;10.414;2022-08-21T13:16:18;5.28;;;1.60;;
39518;SDS011;25200;53.394;10.414;2022-08-21T13:18:52;3.22;;;1.48;;
39518;SDS011;25200;53.394;10.414;2022-08-21T13:21:18;3.20;;;1.17;;
39518;SDS011;25200;53.394;10.414;2022-08-21T13:23:45;2.38;;;1.27;;
39518;SDS011;25200;53.394;10.414;2022-08-21T13:26:14;4.28;;;1.42;;
39518;SDS011;25200;53.394;10.414;2022-08-21T13:28:41;4.20;;;1.27;;
39518;SDS011;25200;53.394;10.414;2022-08-21T13:31:09;2.67;;;1.23;;
39518;SDS011;25200;53.394;10.414;2022-08-21T13:33:35;4.20;;;1.55;;
39518;SDS011;25200;53.394;10.414;2022-08-21T13:36:04;4.43;;;1.40;;
39518;SDS011;25200;53.394;10.414;2022-08-21T13:38:36;2.80;;;1.10;;
39518;SDS011;25200;53.394;10.414;2022-08-21T13:41:15;3.38;;;1.27;;
39518;SDS011;25200;53.394;10.414;2022-08-21T13:43:49;3.17;;;1.30;;
39518;SDS011;25200;53.394;10.414;2022-08-21T13:46:22;4.63;;;1.60;;
39518;SDS011;25200;53.394;10.414;2022-08-21T13:48:51;3.95;;;1.33;;
39518;SDS011;25200;53.394;10.414;2022-08-21T13:51:18;4.20;;;1.48;;
39518;SDS011;25200;53.394;10.414;2022-08-21T13:53:46;3.65;;;1.35;;
39518;SDS011;25200;53.394;10.414;2022-08-21T13:56:41;3.95;;;1.27;;
39518;SDS011;25200;53.394;10.414;2022-08-21T13:59:08;5.18;;;1.25;;
39518;SDS011;25200;53.394;10.414;2022-08-21T14:01:36;4.95;;;1.30;;
39518;SDS011;25200;53.394;10.414;2022-08-21T14:04:18;5.78;;;1.50;;
39518;SDS011;25200;53.394;10.414;2022-08-21T14:06:50;2.47;;;1.10;;
39518;SDS011;25200;53.394;10.414;2022-08-21T14:12:16;3.33;;;1.33;;
39518;SDS011;25200;53.394;10.414;2022-08-21T14:14:54;2.58;;;1.33;;
39518;SDS011;25200;53.394;10.414;2022-08-21T14:17:26;3.72;;;1.50;;
39518;SDS011;25200;53.394;10.414;2022-08-21T14:20:04;4.15;;;1.20;;
39518;SDS011;25200;53.394;10.414;2022-08-21T14:27:54;3.80;;;1.33;;
39518;SDS011;25200;53.394;10.414;2022-08-21T14:30:28;4.35;;;1.33;;
39518;SDS011;25200;53.394;10.414;2022-08-21T14:32:59;3.85;;;1.30;;
39518;SDS011;25200;53.394;10.414;2022-08-21T14:35:26;3.63;;;1.30;;
39518;SDS011;25200;53.394;10.414;2022-08-21T14:37:52;3.60;;;1.40;;
39518;SDS011;25200;53.394;10.414;2022-08-21T14:40:19;4.03;;;1.30;;
39518;SDS011;25200;53.394;10.414;2022-08-21T14:42:46;3.78;;;1.30;;
39518;SDS011;25200;53.394;10.414;2022-08-21T14:45:35;3.88;;;1.38;;
39518;SDS011;25200;53.394;10.414;2022-08-21T14:48:02;3.28;;;1.30;;
39518;SDS011;25200;53.394;10.414;2022-08-21T14:50:28;3.85;;;1.25;;
39518;SDS011;25200;53.394;10.414;2022-08-21T14:52:54;2.90;;;1.38;;
39518;SDS011;25200;53.394;10.414;2022-08-21T14:55:20;5.25;;;1.35;;
39518;SDS011;25200;53.394;10.414;2022-08-21T14:57:47;3.63;;;1.40;;
39518;SDS011;25200;53.394;10.414;2022-08-21T15:00:16;4.93;;;1.38;;
39518;SDS011;25200;53.394;10.414;2022-08-21T15:02:44;3.15;;;1.27;;
39518;SDS011;25200;53.394;10.414;2022-08-21T15:05:10;3.60;;;1.17;;
39518;SDS011;25200;53.394;10.414;2022-08-21T15:07:36;4.28;;;1.30;;
39518;SDS011;25200;53.394;10.414;2022-08-21T15:10:03;3.47;;;1.20;;
39518;SDS011;25200;53.394;10.414;2022-08-21T15:12:30;4.80;;;1.40;;
39518;SDS011;25200;53.394;10.414;2022-08-21T15:14:56;3.53;;;1.27;;
39518;SDS011;25200;53.394;10.414;2022-08-21T15:17:21;3.97;;;1.38;;
39518;SDS011;25200;53.394;10.414;2022-08-21T15:19:47;4.78;;;1.40;;
39518;SDS011;25200;53.394;10.414;2022-08-21T15:22:13;4.65;;;1.40;;
39518;SDS011;25200;53.394;10.414;2022-08-21T15:24:39;5.00;;;1.65;;
39518;SDS011;25200;53.394;10.414;2022-08-21T15:27:06;3.17;;;1.40;;
39518;SDS011;25200;53.394;10.414;2022-08-21T15:29:33;4.13;;;1.35;;
39518;SDS011;25200;53.394;10.414;2022-08-21T15:32:03;3.33;;;1.30;;
39518;SDS011;25200;53.394;10.414;2022-08-21T15:34:40;4.50;;;1.50;;
39518;SDS011;25200;53.394;10.414;2022-08-21T15:37:05;2.92;;;1.38;;
39518;SDS011;25200;53.394;10.414;2022-08-21T15:39:33;5.72;;;1.35;;
39518;SDS011;25200;53.394;10.414;2022-08-21T15:42:00;3.03;;;1.30;;
39518;SDS011;25200;53.394;10.414;2022-08-21T15:44:27;4.68;;;1.55;;
39518;SDS011;25200;53.394;10.414;2022-08-21T15:46:53;4.50;;;1.42;;
39518;SDS011;25200;53.394;10.414;2022-08-21T15:49:21;5.95;;;1.67;;
39518;SDS011;25200;53.394;10.414;2022-08-21T15:51:47;6.35;;;1.70;;
39518;SDS011;25200;53.394;10.414;2022-08-21T15:54:12;4.78;;;1.40;;
39518;SDS011;25200;53.394;10.414;2022-08-21T15:56:39;4.28;;;1.50;;
39518;SDS011;25200;53.394;10.414;2022-08-21T15:59:12;2.72;;;1.25;;
39518;SDS011;25200;53.394;10.414;2022-08-21T16:01:41;4.55;;;1.60;;
39518;SDS011;25200;53.394;10.414;2022-08-21T16:04:07;4.70;;;1.60;;
39518;SDS011;25200;53.394;10.414;2022-08-21T16:06:34;5.65;;;1.80;;
39518;SDS011;25200;53.394;10.414;2022-08-21T16:08:59;7.70;;;1.70;;
39518;SDS011;25200;53.394;10.414;2022-08-21T16:11:25;3.50;;;1.50;;
39518;SDS011;25200;53.394;10.414;2022-08-21T16:13:52;5.78;;;1.60;;
39518;SDS011;25200;53.394;10.414;2022-08-21T16:16:19;6.03;;;1.77;;
39518;SDS011;25200;53.394;10.414;2022-08-21T16:18:46;3.83;;;1.50;;
39518;SDS011;25200;53.394;10.414;2022-08-21T16:21:13;3.03;;;1.30;;